sensor_id;sensor_type;location;lat;lon;timestamp;P1;durP1;ratioP1;P2;durP2;ratioP2
28343;SDS011;15597;50.914;6.638;2023-06-26T00:02:18;6.20;;;3.97;;
28343;SDS011;15597;50.914;6.638;2023-06-26T00:04:43;9.30;;;4.20;;
28343;SDS011;15597;50.914;6.638;2023-06-26T00:07:09;6.15;;;4.05;;
28343;SDS011;15597;50.914;6.638;2023-06-26T00:09:35;6.05;;;4.15;;
28343;SDS011;15597;50.914;6.638;2023-06-26T00:12:01;6.35;;;4.43;;
28343;SDS011;15597;50.914;6.638;2023-06-26T00:14:26;7.95;;;4.32;;
28343;SDS011;15597;50.914;6.638;2023-06-26T00:16:52;7.88;;;4.63;;
28343;SDS011;15597;50.914;6.638;2023-06-26T00:19:18;6.03;;;4.10;;
28343;SDS011;15597;50.914;6.638;2023-06-26T00:21:43;7.07;;;4.00;;
28343;SDS011;15597;50.914;6.638;2023-06-26T00:24:12;7.65;;;3.90;;
28343;SDS011;15597;50.914;6.638;2023-06-26T00:26:38;5.93;;;4.03;;
28343;SDS011;15597;50.914;6.638;2023-06-26T00:29:04;6.70;;;4.25;;
28343;SDS011;15597;50.914;6.638;2023-06-26T00:31:30;5.90;;;4.18;;
28343;SDS011;15597;50.914;6.638;2023-06-26T00:33:55;6.40;;;4.40;;
28343;SDS011;15597;50.914;6.638;2023-06-26T00:36:23;5.78;;;4.22;;
28343;SDS011;15597;50.914;6.638;2023-06-26T00:38:51;8.63;;;4.43;;
28343;SDS011;15597;50.914;6.638;2023-06-26T00:41:18;6.63;;;4.13;;
28343;SDS011;15597;50.914;6.638;2023-06-26T00:43:44;6.90;;;4.50;;
28343;SDS011;15597;50.914;6.638;2023-06-26T00:46:12;7.30;;;4.30;;
28343;SDS011;15597;50.914;6.638;2023-06-26T00:48:39;6.78;;;4.28;;
28343;SDS011;15597;50.914;6.638;2023-06-26T00:51:07;7.00;;;4.47;;
28343;SDS011;15597;50.914;6.638;2023-06-26T00:53:34;6.68;;;4.53;;
28343;SDS011;15597;50.914;6.638;2023-06-26T00:56:00;6.53;;;4.47;;
28343;SDS011;15597;50.914;6.638;2023-06-26T00:58:28;6.25;;;4.18;;
28343;SDS011;15597;50.914;6.638;2023-06-26T01:00:56;6.40;;;4.35;;
28343;SDS011;15597;50.914;6.638;2023-06-26T01:03:22;6.32;;;4.55;;
28343;SDS011;15597;50.914;6.638;2023-06-26T01:05:52;8.38;;;4.15;;
28343;SDS011;15597;50.914;6.638;2023-06-26T01:08:21;6.50;;;4.53;;
28343;SDS011;15597;50.914;6.638;2023-06-26T01:10:48;6.97;;;4.60;;
28343;SDS011;15597;50.914;6.638;2023-06-26T01:13:14;6.50;;;4.20;;
28343;SDS011;15597;50.914;6.638;2023-06-26T01:15:40;6.25;;;4.10;;
28343;SDS011;15597;50.914;6.638;2023-06-26T01:18:06;6.10;;;4.32;;
28343;SDS011;15597;50.914;6.638;2023-06-26T01:20:36;7.47;;;4.60;;
28343;SDS011;15597;50.914;6.638;2023-06-26T01:28:33;6.85;;;4.57;;
28343;SDS011;15597;50.914;6.638;2023-06-26T01:31:00;6.78;;;4.65;;
28343;SDS011;15597;50.914;6.638;2023-06-26T01:33:29;6.18;;;4.15;;
28343;SDS011;15597;50.914;6.638;2023-06-26T01:35:55;5.43;;;3.95;;
28343;SDS011;15597;50.914;6.638;2023-06-26T01:38:21;7.35;;;4.57;;
28343;SDS011;15597;50.914;6.638;2023-06-26T01:40:51;7.07;;;4.65;;
28343;SDS011;15597;50.914;6.638;2023-06-26T01:46:03;7.18;;;4.57;;
28343;SDS011;15597;50.914;6.638;2023-06-26T01:48:38;7.57;;;4.55;;
28343;SDS011;15597;50.914;6.638;2023-06-26T01:51:10;6.40;;;4.65;;
28343;SDS011;15597;50.914;6.638;2023-06-26T01:53:38;6.65;;;4.10;;
28343;SDS011;15597;50.914;6.638;2023-06-26T01:56:13;6.93;;;4.90;;
28343;SDS011;15597;50.914;6.638;2023-06-26T01:58:43;7.13;;;4.65;;
28343;SDS011;15597;50.914;6.638;2023-06-26T02:01:11;6.88;;;4.30;;
28343;SDS011;15597;50.914;6.638;2023-06-26T02:03:37;6.60;;;4.53;;
28343;SDS011;15597;50.914;6.638;2023-06-26T02:06:03;6.38;;;4.43;;
28343;SDS011;15597;50.914;6.638;2023-06-26T02:08:28;6.68;;;4.30;;
28343;SDS011;15597;50.914;6.638;2023-06-26T02:10:55;6.57;;;4.38;;
28343;SDS011;15597;50.914;6.638;2023-06-26T02:13:21;7.75;;;4.75;;
28343;SDS011;15597;50.914;6.638;2023-06-26T02:15:47;9.02;;;4.63;;
28343;SDS011;15597;50.914;6.638;2023-06-26T02:18:13;7.43;;;4.60;;
28343;SDS011;15597;50.914;6.638;2023-06-26T02:20:38;6.72;;;4.40;;
28343;SDS011;15597;50.914;6.638;2023-06-26T02:23:05;8.00;;;4.20;;
28343;SDS011;15597;50.914;6.638;2023-06-26T02:25:30;7.25;;;4.20;;
28343;SDS011;15597;50.914;6.638;2023-06-26T02:27:56;7.93;;;4.30;;
28343;SDS011;15597;50.914;6.638;2023-06-26T02:30:21;6.85;;;4.75;;
28343;SDS011;15597;50.914;6.638;2023-06-26T02:32:47;6.38;;;4.30;;
28343;SDS011;15597;50.914;6.638;2023-06-26T02:35:13;8.38;;;4.05;;
28343;SDS011;15597;50.914;6.638;2023-06-26T02:37:41;6.30;;;4.18;;
28343;SDS011;15597;50.914;6.638;2023-06-26T02:40:08;6.50;;;4.30;;
28343;SDS011;15597;50.914;6.638;2023-06-26T02:42:36;6.00;;;4.10;;
28343;SDS011;15597;50.914;6.638;2023-06-26T02:45:02;7.53;;;3.83;;
28343;SDS011;15597;50.914;6.638;2023-06-26T02:47:30;8.35;;;4.20;;
28343;SDS011;15597;50.914;6.638;2023-06-26T02:49:55;6.78;;;3.85;;
28343;SDS011;15597;50.914;6.638;2023-06-26T02:52:21;7.78;;;4.50;;
28343;SDS011;15597;50.914;6.638;2023-06-26T02:54:47;7.60;;;4.20;;
28343;SDS011;15597;50.914;6.638;2023-06-26T02:57:13;6.45;;;4.30;;
28343;SDS011;15597;50.914;6.638;2023-06-26T02:59:39;6.70;;;4.50;;
28343;SDS011;15597;50.914;6.638;2023-06-26T03:02:05;7.43;;;4.20;;
28343;SDS011;15597;50.914;6.638;2023-06-26T03:04:37;6.60;;;4.18;;
28343;SDS011;15597;50.914;6.638;2023-06-26T03:07:03;7.25;;;4.18;;
28343;SDS011;15597;50.914;6.638;2023-06-26T03:09:30;6.28;;;4.07;;
28343;SDS011;15597;50.914;6.638;2023-06-26T03:11:56;6.32;;;3.92;;
28343;SDS011;15597;50.914;6.638;2023-06-26T03:14:22;7.53;;;3.60;;
28343;SDS011;15597;50.914;6.638;2023-06-26T03:16:47;6.38;;;3.90;;
28343;SDS011;15597;50.914;6.638;2023-06-26T03:19:13;7.80;;;4.15;;
28343;SDS011;15597;50.914;6.638;2023-06-26T03:22:01;6.35;;;4.03;;
28343;SDS011;15597;50.914;6.638;2023-06-26T03:24:29;6.70;;;3.90;;
28343;SDS011;15597;50.914;6.638;2023-06-26T03:26:55;7.20;;;4.20;;
28343;SDS011;15597;50.914;6.638;2023-06-26T03:29:20;5.90;;;3.92;;
28343;SDS011;15597;50.914;6.638;2023-06-26T03:31:47;8.98;;;4.20;;
28343;SDS011;15597;50.914;6.638;2023-06-26T03:34:12;7.25;;;3.97;;
28343;SDS011;15597;50.914;6.638;2023-06-26T03:36:38;6.97;;;3.78;;
28343;SDS011;15597;50.914;6.638;2023-06-26T03:39:03;6.07;;;3.85;;
28343;SDS011;15597;50.914;6.638;2023-06-26T03:41:29;7.82;;;4.20;;
28343;SDS011;15597;50.914;6.638;2023-06-26T03:43:55;6.65;;;4.20;;
28343;SDS011;15597;50.914;6.638;2023-06-26T03:46:26;7.47;;;3.85;;
28343;SDS011;15597;50.914;6.638;2023-06-26T03:48:51;7.05;;;4.15;;
28343;SDS011;15597;50.914;6.638;2023-06-26T03:51:17;7.25;;;4.13;;
28343;SDS011;15597;50.914;6.638;2023-06-26T03:53:43;6.65;;;3.55;;
28343;SDS011;15597;50.914;6.638;2023-06-26T03:56:08;7.53;;;3.88;;
28343;SDS011;15597;50.914;6.638;2023-06-26T03:58:34;6.22;;;4.15;;
28343;SDS011;15597;50.914;6.638;2023-06-26T04:01:00;8.10;;;4.30;;
28343;SDS011;15597;50.914;6.638;2023-06-26T04:03:25;6.13;;;3.55;;
28343;SDS011;15597;50.914;6.638;2023-06-26T04:05:52;6.80;;;3.92;;
28343;SDS011;15597;50.914;6.638;2023-06-26T04:08:17;7.05;;;3.50;;
28343;SDS011;15597;50.914;6.638;2023-06-26T04:10:45;8.50;;;3.78;;
28343;SDS011;15597;50.914;6.638;2023-06-26T04:13:12;7.32;;;3.78;;
28343;SDS011;15597;50.914;6.638;2023-06-26T04:15:39;6.75;;;3.47;;
28343;SDS011;15597;50.914;6.638;2023-06-26T04:18:04;6.80;;;3.60;;
28343;SDS011;15597;50.914;6.638;2023-06-26T04:20:30;5.78;;;3.70;;
28343;SDS011;15597;50.914;6.638;2023-06-26T04:22:56;6.25;;;3.40;;
28343;SDS011;15597;50.914;6.638;2023-06-26T04:25:21;7.70;;;3.92;;
28343;SDS011;15597;50.914;6.638;2023-06-26T04:27:47;6.38;;;3.90;;
28343;SDS011;15597;50.914;6.638;2023-06-26T04:30:12;6.47;;;3.50;;
28343;SDS011;15597;50.914;6.638;2023-06-26T04:32:38;7.07;;;3.65;;
28343;SDS011;15597;50.914;6.638;2023-06-26T04:35:04;7.03;;;3.17;;
28343;SDS011;15597;50.914;6.638;2023-06-26T04:37:29;6.32;;;3.78;;
28343;SDS011;15597;50.914;6.638;2023-06-26T04:39:55;9.57;;;3.50;;
28343;SDS011;15597;50.914;6.638;2023-06-26T04:42:20;5.45;;;3.25;;
28343;SDS011;15597;50.914;6.638;2023-06-26T04:44:48;5.95;;;3.50;;
28343;SDS011;15597;50.914;6.638;2023-06-26T04:47:14;5.78;;;3.60;;
28343;SDS011;15597;50.914;6.638;2023-06-26T04:49:40;9.00;;;3.40;;
28343;SDS011;15597;50.914;6.638;2023-06-26T04:52:11;6.05;;;3.47;;
28343;SDS011;15597;50.914;6.638;2023-06-26T04:54:38;5.38;;;3.40;;
28343;SDS011;15597;50.914;6.638;2023-06-26T04:57:04;6.25;;;3.30;;
28343;SDS011;15597;50.914;6.638;2023-06-26T04:59:31;8.25;;;3.53;;
28343;SDS011;15597;50.914;6.638;2023-06-26T05:01:56;5.70;;;3.45;;
28343;SDS011;15597;50.914;6.638;2023-06-26T05:04:22;6.15;;;3.30;;
28343;SDS011;15597;50.914;6.638;2023-06-26T05:06:48;9.98;;;3.83;;
28343;SDS011;15597;50.914;6.638;2023-06-26T05:09:13;5.63;;;3.35;;
28343;SDS011;15597;50.914;6.638;2023-06-26T05:11:39;6.85;;;3.33;;
28343;SDS011;15597;50.914;6.638;2023-06-26T05:14:05;6.47;;;3.40;;
28343;SDS011;15597;50.914;6.638;2023-06-26T05:16:32;7.15;;;3.40;;
28343;SDS011;15597;50.914;6.638;2023-06-26T05:18:59;7.82;;;3.63;;
28343;SDS011;15597;50.914;6.638;2023-06-26T05:21:25;5.93;;;3.40;;
28343;SDS011;15597;50.914;6.638;2023-06-26T05:23:51;6.28;;;3.13;;
28343;SDS011;15597;50.914;6.638;2023-06-26T05:26:20;8.10;;;3.25;;
28343;SDS011;15597;50.914;6.638;2023-06-26T05:28:46;9.02;;;3.53;;
28343;SDS011;15597;50.914;6.638;2023-06-26T05:31:14;6.75;;;3.30;;
28343;SDS011;15597;50.914;6.638;2023-06-26T05:33:42;5.82;;;3.10;;
28343;SDS011;15597;50.914;6.638;2023-06-26T05:36:08;6.63;;;2.90;;
28343;SDS011;15597;50.914;6.638;2023-06-26T05:38:34;6.35;;;2.70;;
28343;SDS011;15597;50.914;6.638;2023-06-26T05:41:00;6.72;;;3.10;;
28343;SDS011;15597;50.914;6.638;2023-06-26T05:43:26;6.93;;;2.70;;
28343;SDS011;15597;50.914;6.638;2023-06-26T05:45:52;7.13;;;2.88;;
28343;SDS011;15597;50.914;6.638;2023-06-26T05:48:17;9.20;;;3.05;;
28343;SDS011;15597;50.914;6.638;2023-06-26T05:50:43;7.75;;;3.28;;
28343;SDS011;15597;50.914;6.638;2023-06-26T05:53:09;8.70;;;3.30;;
28343;SDS011;15597;50.914;6.638;2023-06-26T05:55:35;5.57;;;2.70;;
28343;SDS011;15597;50.914;6.638;2023-06-26T05:58:02;5.47;;;2.90;;
28343;SDS011;15597;50.914;6.638;2023-06-26T06:00:28;5.68;;;2.70;;
28343;SDS011;15597;50.914;6.638;2023-06-26T06:02:54;6.03;;;2.78;;
28343;SDS011;15597;50.914;6.638;2023-06-26T06:05:20;6.43;;;3.05;;
28343;SDS011;15597;50.914;6.638;2023-06-26T06:07:47;9.30;;;2.90;;
28343;SDS011;15597;50.914;6.638;2023-06-26T06:10:13;7.80;;;2.85;;
28343;SDS011;15597;50.914;6.638;2023-06-26T06:12:38;5.80;;;2.85;;
28343;SDS011;15597;50.914;6.638;2023-06-26T06:15:05;7.03;;;2.80;;
28343;SDS011;15597;50.914;6.638;2023-06-26T06:17:31;7.32;;;2.72;;
28343;SDS011;15597;50.914;6.638;2023-06-26T06:19:56;7.78;;;2.58;;
28343;SDS011;15597;50.914;6.638;2023-06-26T06:22:22;6.10;;;2.80;;
28343;SDS011;15597;50.914;6.638;2023-06-26T06:24:51;5.65;;;2.60;;
28343;SDS011;15597;50.914;6.638;2023-06-26T06:27:16;8.68;;;3.05;;
28343;SDS011;15597;50.914;6.638;2023-06-26T06:29:42;7.53;;;2.88;;
28343;SDS011;15597;50.914;6.638;2023-06-26T06:32:08;6.05;;;2.95;;
28343;SDS011;15597;50.914;6.638;2023-06-26T06:34:33;6.25;;;2.95;;
28343;SDS011;15597;50.914;6.638;2023-06-26T06:36:59;5.90;;;2.67;;
28343;SDS011;15597;50.914;6.638;2023-06-26T06:39:24;5.68;;;2.60;;
28343;SDS011;15597;50.914;6.638;2023-06-26T06:41:50;6.35;;;3.20;;
28343;SDS011;15597;50.914;6.638;2023-06-26T06:44:16;6.68;;;2.78;;
28343;SDS011;15597;50.914;6.638;2023-06-26T06:46:41;6.93;;;2.90;;
28343;SDS011;15597;50.914;6.638;2023-06-26T06:49:08;6.40;;;2.70;;
28343;SDS011;15597;50.914;6.638;2023-06-26T06:51:33;7.53;;;2.60;;
28343;SDS011;15597;50.914;6.638;2023-06-26T06:53:59;9.32;;;3.10;;
28343;SDS011;15597;50.914;6.638;2023-06-26T06:56:25;6.60;;;2.85;;
28343;SDS011;15597;50.914;6.638;2023-06-26T06:58:50;6.85;;;2.65;;
28343;SDS011;15597;50.914;6.638;2023-06-26T07:01:16;6.50;;;2.55;;
28343;SDS011;15597;50.914;6.638;2023-06-26T07:03:41;8.80;;;2.67;;
28343;SDS011;15597;50.914;6.638;2023-06-26T07:06:07;6.75;;;2.60;;
28343;SDS011;15597;50.914;6.638;2023-06-26T07:08:32;10.00;;;3.38;;
28343;SDS011;15597;50.914;6.638;2023-06-26T07:10:58;9.93;;;3.00;;
28343;SDS011;15597;50.914;6.638;2023-06-26T07:13:24;8.48;;;3.10;;
28343;SDS011;15597;50.914;6.638;2023-06-26T07:15:49;5.78;;;2.42;;
28343;SDS011;15597;50.914;6.638;2023-06-26T07:18:15;10.65;;;3.42;;
28343;SDS011;15597;50.914;6.638;2023-06-26T07:20:41;5.88;;;2.90;;
28343;SDS011;15597;50.914;6.638;2023-06-26T07:23:07;7.25;;;3.17;;
28343;SDS011;15597;50.914;6.638;2023-06-26T07:25:33;7.38;;;3.03;;
28343;SDS011;15597;50.914;6.638;2023-06-26T07:27:59;8.80;;;3.25;;
28343;SDS011;15597;50.914;6.638;2023-06-26T07:30:24;5.78;;;2.78;;
28343;SDS011;15597;50.914;6.638;2023-06-26T07:32:50;6.28;;;2.80;;
28343;SDS011;15597;50.914;6.638;2023-06-26T07:35:16;9.25;;;3.10;;
28343;SDS011;15597;50.914;6.638;2023-06-26T07:37:41;5.50;;;3.00;;
28343;SDS011;15597;50.914;6.638;2023-06-26T07:40:07;5.78;;;3.25;;
28343;SDS011;15597;50.914;6.638;2023-06-26T07:42:34;10.00;;;3.20;;
28343;SDS011;15597;50.914;6.638;2023-06-26T07:44:59;9.02;;;3.42;;
28343;SDS011;15597;50.914;6.638;2023-06-26T07:47:25;9.15;;;3.22;;
28343;SDS011;15597;50.914;6.638;2023-06-26T07:49:51;7.18;;;2.80;;
28343;SDS011;15597;50.914;6.638;2023-06-26T07:52:17;6.78;;;2.60;;
28343;SDS011;15597;50.914;6.638;2023-06-26T07:54:44;4.80;;;2.42;;
28343;SDS011;15597;50.914;6.638;2023-06-26T07:57:09;6.97;;;2.85;;
28343;SDS011;15597;50.914;6.638;2023-06-26T07:59:36;6.25;;;2.83;;
28343;SDS011;15597;50.914;6.638;2023-06-26T08:02:02;6.45;;;2.88;;
28343;SDS011;15597;50.914;6.638;2023-06-26T08:04:29;5.38;;;2.53;;
28343;SDS011;15597;50.914;6.638;2023-06-26T08:06:57;5.97;;;2.50;;
28343;SDS011;15597;50.914;6.638;2023-06-26T08:09:25;7.43;;;2.78;;
28343;SDS011;15597;50.914;6.638;2023-06-26T08:11:52;6.47;;;2.70;;
28343;SDS011;15597;50.914;6.638;2023-06-26T08:14:19;8.15;;;2.83;;
28343;SDS011;15597;50.914;6.638;2023-06-26T08:16:45;7.22;;;2.75;;
28343;SDS011;15597;50.914;6.638;2023-06-26T08:19:14;9.18;;;2.80;;
28343;SDS011;15597;50.914;6.638;2023-06-26T08:21:41;7.07;;;2.90;;
28343;SDS011;15597;50.914;6.638;2023-06-26T08:24:10;7.72;;;2.85;;
28343;SDS011;15597;50.914;6.638;2023-06-26T08:26:36;7.88;;;2.70;;
28343;SDS011;15597;50.914;6.638;2023-06-26T08:29:02;8.23;;;2.67;;
28343;SDS011;15597;50.914;6.638;2023-06-26T08:31:34;6.22;;;2.53;;
28343;SDS011;15597;50.914;6.638;2023-06-26T08:34:00;7.95;;;2.97;;
28343;SDS011;15597;50.914;6.638;2023-06-26T08:36:26;6.47;;;2.58;;
28343;SDS011;15597;50.914;6.638;2023-06-26T08:38:52;6.22;;;2.40;;
28343;SDS011;15597;50.914;6.638;2023-06-26T08:41:17;8.13;;;2.75;;
28343;SDS011;15597;50.914;6.638;2023-06-26T08:43:43;6.43;;;2.65;;
28343;SDS011;15597;50.914;6.638;2023-06-26T08:46:08;9.35;;;2.63;;
28343;SDS011;15597;50.914;6.638;2023-06-26T08:48:34;9.90;;;3.17;;
28343;SDS011;15597;50.914;6.638;2023-06-26T08:53:50;8.88;;;2.50;;
28343;SDS011;15597;50.914;6.638;2023-06-26T08:56:21;6.40;;;2.50;;
28343;SDS011;15597;50.914;6.638;2023-06-26T08:58:48;6.75;;;2.70;;
28343;SDS011;15597;50.914;6.638;2023-06-26T09:01:14;8.60;;;2.47;;
28343;SDS011;15597;50.914;6.638;2023-06-26T09:03:40;5.90;;;2.38;;
28343;SDS011;15597;50.914;6.638;2023-06-26T09:06:08;7.15;;;2.75;;
28343;SDS011;15597;50.914;6.638;2023-06-26T09:08:34;8.40;;;2.83;;
28343;SDS011;15597;50.914;6.638;2023-06-26T09:10:59;8.48;;;3.08;;
28343;SDS011;15597;50.914;6.638;2023-06-26T09:13:25;4.88;;;2.60;;
28343;SDS011;15597;50.914;6.638;2023-06-26T09:15:52;7.45;;;2.35;;
28343;SDS011;15597;50.914;6.638;2023-06-26T09:18:20;9.30;;;3.08;;
28343;SDS011;15597;50.914;6.638;2023-06-26T09:20:47;8.85;;;2.80;;
28343;SDS011;15597;50.914;6.638;2023-06-26T09:23:13;6.88;;;2.20;;
28343;SDS011;15597;50.914;6.638;2023-06-26T09:25:39;6.82;;;2.55;;
28343;SDS011;15597;50.914;6.638;2023-06-26T09:28:05;6.30;;;2.28;;
28343;SDS011;15597;50.914;6.638;2023-06-26T09:30:32;6.60;;;2.33;;
28343;SDS011;15597;50.914;6.638;2023-06-26T09:33:12;10.35;;;2.72;;
28343;SDS011;15597;50.914;6.638;2023-06-26T09:35:39;8.45;;;2.40;;
28343;SDS011;15597;50.914;6.638;2023-06-26T09:38:05;6.57;;;2.45;;
28343;SDS011;15597;50.914;6.638;2023-06-26T09:40:31;6.68;;;2.35;;
28343;SDS011;15597;50.914;6.638;2023-06-26T09:43:05;6.32;;;2.40;;
28343;SDS011;15597;50.914;6.638;2023-06-26T09:45:32;6.70;;;2.30;;
28343;SDS011;15597;50.914;6.638;2023-06-26T09:48:02;7.82;;;2.58;;
28343;SDS011;15597;50.914;6.638;2023-06-26T09:50:29;6.38;;;2.38;;
28343;SDS011;15597;50.914;6.638;2023-06-26T09:52:55;6.30;;;2.10;;
28343;SDS011;15597;50.914;6.638;2023-06-26T09:55:21;5.68;;;2.22;;
28343;SDS011;15597;50.914;6.638;2023-06-26T09:57:51;6.90;;;2.20;;
28343;SDS011;15597;50.914;6.638;2023-06-26T10:00:17;5.05;;;2.22;;
28343;SDS011;15597;50.914;6.638;2023-06-26T10:02:43;9.43;;;2.47;;
28343;SDS011;15597;50.914;6.638;2023-06-26T10:05:09;6.43;;;2.30;;
28343;SDS011;15597;50.914;6.638;2023-06-26T10:07:35;5.13;;;2.00;;
28343;SDS011;15597;50.914;6.638;2023-06-26T10:10:02;7.47;;;1.60;;
28343;SDS011;15597;50.914;6.638;2023-06-26T10:12:29;6.15;;;2.20;;
28343;SDS011;15597;50.914;6.638;2023-06-26T10:14:56;8.05;;;2.00;;
28343;SDS011;15597;50.914;6.638;2023-06-26T10:17:24;7.18;;;2.65;;
28343;SDS011;15597;50.914;6.638;2023-06-26T10:19:53;5.55;;;2.10;;
28343;SDS011;15597;50.914;6.638;2023-06-26T10:22:24;6.55;;;1.85;;
28343;SDS011;15597;50.914;6.638;2023-06-26T10:24:52;5.93;;;2.15;;
28343;SDS011;15597;50.914;6.638;2023-06-26T10:27:24;5.38;;;1.92;;
28343;SDS011;15597;50.914;6.638;2023-06-26T10:29:54;6.05;;;2.05;;
28343;SDS011;15597;50.914;6.638;2023-06-26T10:32:23;6.85;;;1.92;;
28343;SDS011;15597;50.914;6.638;2023-06-26T10:34:51;6.28;;;2.00;;
28343;SDS011;15597;50.914;6.638;2023-06-26T10:37:17;8.18;;;2.10;;
28343;SDS011;15597;50.914;6.638;2023-06-26T10:39:45;5.40;;;2.00;;
28343;SDS011;15597;50.914;6.638;2023-06-26T10:42:14;5.57;;;1.90;;
28343;SDS011;15597;50.914;6.638;2023-06-26T10:44:43;6.18;;;2.15;;
28343;SDS011;15597;50.914;6.638;2023-06-26T10:47:10;5.03;;;1.92;;
28343;SDS011;15597;50.914;6.638;2023-06-26T10:49:37;5.10;;;2.00;;
28343;SDS011;15597;50.914;6.638;2023-06-26T10:52:07;4.03;;;1.70;;
28343;SDS011;15597;50.914;6.638;2023-06-26T10:54:33;6.90;;;2.03;;
28343;SDS011;15597;50.914;6.638;2023-06-26T10:56:59;6.18;;;1.85;;
28343;SDS011;15597;50.914;6.638;2023-06-26T10:59:25;4.38;;;1.83;;
28343;SDS011;15597;50.914;6.638;2023-06-26T11:02:02;6.30;;;2.30;;
28343;SDS011;15597;50.914;6.638;2023-06-26T11:07:16;4.90;;;1.90;;
28343;SDS011;15597;50.914;6.638;2023-06-26T11:09:53;5.47;;;2.03;;
28343;SDS011;15597;50.914;6.638;2023-06-26T11:12:43;4.85;;;1.65;;
28343;SDS011;15597;50.914;6.638;2023-06-26T11:15:13;6.70;;;1.75;;
28343;SDS011;15597;50.914;6.638;2023-06-26T11:17:41;6.70;;;1.90;;
28343;SDS011;15597;50.914;6.638;2023-06-26T11:20:09;5.47;;;1.42;;
28343;SDS011;15597;50.914;6.638;2023-06-26T11:22:36;4.82;;;1.90;;
28343;SDS011;15597;50.914;6.638;2023-06-26T11:25:02;5.25;;;1.88;;
28343;SDS011;15597;50.914;6.638;2023-06-26T11:29:56;5.63;;;1.80;;
28343;SDS011;15597;50.914;6.638;2023-06-26T11:32:22;6.68;;;1.75;;
28343;SDS011;15597;50.914;6.638;2023-06-26T11:34:47;5.60;;;1.83;;
28343;SDS011;15597;50.914;6.638;2023-06-26T11:37:16;5.90;;;1.60;;
28343;SDS011;15597;50.914;6.638;2023-06-26T11:39:42;8.20;;;1.80;;
28343;SDS011;15597;50.914;6.638;2023-06-26T11:42:08;5.20;;;1.90;;
28343;SDS011;15597;50.914;6.638;2023-06-26T11:44:39;5.85;;;1.67;;
28343;SDS011;15597;50.914;6.638;2023-06-26T11:47:07;4.72;;;1.65;;
28343;SDS011;15597;50.914;6.638;2023-06-26T11:49:32;4.35;;;1.70;;
28343;SDS011;15597;50.914;6.638;2023-06-26T11:51:58;6.80;;;1.77;;
28343;SDS011;15597;50.914;6.638;2023-06-26T11:54:24;5.85;;;1.80;;
28343;SDS011;15597;50.914;6.638;2023-06-26T11:56:51;5.22;;;1.90;;
28343;SDS011;15597;50.914;6.638;2023-06-26T11:59:21;5.88;;;1.70;;
28343;SDS011;15597;50.914;6.638;2023-06-26T12:01:49;3.72;;;1.45;;
28343;SDS011;15597;50.914;6.638;2023-06-26T12:04:16;4.35;;;1.60;;
28343;SDS011;15597;50.914;6.638;2023-06-26T12:06:48;4.93;;;1.70;;
28343;SDS011;15597;50.914;6.638;2023-06-26T12:09:20;3.95;;;1.50;;
28343;SDS011;15597;50.914;6.638;2023-06-26T12:11:46;6.22;;;1.50;;
28343;SDS011;15597;50.914;6.638;2023-06-26T12:14:16;4.35;;;1.67;;
28343;SDS011;15597;50.914;6.638;2023-06-26T12:16:44;4.50;;;1.50;;
28343;SDS011;15597;50.914;6.638;2023-06-26T12:19:10;4.32;;;1.30;;
28343;SDS011;15597;50.914;6.638;2023-06-26T12:24:12;6.97;;;1.42;;
28343;SDS011;15597;50.914;6.638;2023-06-26T12:26:46;7.55;;;1.60;;
28343;SDS011;15597;50.914;6.638;2023-06-26T12:29:15;7.03;;;1.83;;
28343;SDS011;15597;50.914;6.638;2023-06-26T12:31:44;7.15;;;1.30;;
28343;SDS011;15597;50.914;6.638;2023-06-26T12:34:12;5.70;;;1.45;;
28343;SDS011;15597;50.914;6.638;2023-06-26T12:36:42;3.00;;;1.20;;
28343;SDS011;15597;50.914;6.638;2023-06-26T12:39:15;6.53;;;1.50;;
28343;SDS011;15597;50.914;6.638;2023-06-26T12:41:56;4.60;;;1.27;;
28343;SDS011;15597;50.914;6.638;2023-06-26T12:44:28;4.45;;;1.23;;
28343;SDS011;15597;50.914;6.638;2023-06-26T12:46:56;7.43;;;1.40;;
28343;SDS011;15597;50.914;6.638;2023-06-26T12:49:29;4.18;;;1.20;;
28343;SDS011;15597;50.914;6.638;2023-06-26T12:51:56;4.18;;;1.20;;
28343;SDS011;15597;50.914;6.638;2023-06-26T12:54:21;3.03;;;1.13;;
28343;SDS011;15597;50.914;6.638;2023-06-26T12:56:47;4.30;;;1.17;;
28343;SDS011;15597;50.914;6.638;2023-06-26T12:59:12;4.43;;;1.10;;
28343;SDS011;15597;50.914;6.638;2023-06-26T13:01:38;4.75;;;1.10;;
28343;SDS011;15597;50.914;6.638;2023-06-26T13:04:03;5.18;;;1.23;;
28343;SDS011;15597;50.914;6.638;2023-06-26T13:06:30;5.00;;;1.40;;
28343;SDS011;15597;50.914;6.638;2023-06-26T13:08:57;4.93;;;1.10;;
28343;SDS011;15597;50.914;6.638;2023-06-26T13:11:23;2.97;;;1.10;;
28343;SDS011;15597;50.914;6.638;2023-06-26T13:13:48;5.00;;;1.50;;
28343;SDS011;15597;50.914;6.638;2023-06-26T13:16:14;4.25;;;1.30;;
28343;SDS011;15597;50.914;6.638;2023-06-26T13:18:41;3.00;;;1.10;;
28343;SDS011;15597;50.914;6.638;2023-06-26T13:21:07;3.63;;;1.27;;
28343;SDS011;15597;50.914;6.638;2023-06-26T13:23:32;3.75;;;1.05;;
28343;SDS011;15597;50.914;6.638;2023-06-26T13:25:58;6.45;;;1.10;;
28343;SDS011;15597;50.914;6.638;2023-06-26T13:28:23;4.03;;;1.30;;
28343;SDS011;15597;50.914;6.638;2023-06-26T13:30:49;3.03;;;1.20;;
28343;SDS011;15597;50.914;6.638;2023-06-26T13:33:14;4.85;;;1.20;;
28343;SDS011;15597;50.914;6.638;2023-06-26T13:35:41;2.88;;;1.00;;
28343;SDS011;15597;50.914;6.638;2023-06-26T13:38:06;4.20;;;1.10;;
28343;SDS011;15597;50.914;6.638;2023-06-26T13:40:32;7.75;;;1.30;;
28343;SDS011;15597;50.914;6.638;2023-06-26T13:42:58;1.90;;;0.80;;
28343;SDS011;15597;50.914;6.638;2023-06-26T13:45:24;5.00;;;1.30;;
28343;SDS011;15597;50.914;6.638;2023-06-26T13:47:50;6.65;;;1.30;;
28343;SDS011;15597;50.914;6.638;2023-06-26T13:50:16;3.35;;;1.00;;
28343;SDS011;15597;50.914;6.638;2023-06-26T13:52:42;3.17;;;1.10;;
28343;SDS011;15597;50.914;6.638;2023-06-26T13:55:07;3.70;;;1.20;;
28343;SDS011;15597;50.914;6.638;2023-06-26T13:57:33;3.25;;;1.00;;
28343;SDS011;15597;50.914;6.638;2023-06-26T13:59:59;3.65;;;1.10;;
28343;SDS011;15597;50.914;6.638;2023-06-26T14:02:24;5.05;;;1.55;;
28343;SDS011;15597;50.914;6.638;2023-06-26T14:04:51;3.50;;;0.90;;
28343;SDS011;15597;50.914;6.638;2023-06-26T14:07:17;7.35;;;1.27;;
28343;SDS011;15597;50.914;6.638;2023-06-26T14:09:42;5.10;;;1.10;;
28343;SDS011;15597;50.914;6.638;2023-06-26T14:12:08;3.10;;;1.00;;
28343;SDS011;15597;50.914;6.638;2023-06-26T14:14:34;3.42;;;1.10;;
28343;SDS011;15597;50.914;6.638;2023-06-26T14:16:59;2.90;;;1.10;;
28343;SDS011;15597;50.914;6.638;2023-06-26T14:19:25;4.10;;;1.08;;
28343;SDS011;15597;50.914;6.638;2023-06-26T14:21:51;3.70;;;1.30;;
28343;SDS011;15597;50.914;6.638;2023-06-26T14:24:17;3.92;;;1.00;;
28343;SDS011;15597;50.914;6.638;2023-06-26T14:26:42;3.90;;;1.20;;
28343;SDS011;15597;50.914;6.638;2023-06-26T14:29:08;3.65;;;1.08;;
28343;SDS011;15597;50.914;6.638;2023-06-26T14:31:34;4.60;;;1.10;;
28343;SDS011;15597;50.914;6.638;2023-06-26T14:33:59;3.97;;;1.10;;
28343;SDS011;15597;50.914;6.638;2023-06-26T14:36:25;4.20;;;1.20;;
28343;SDS011;15597;50.914;6.638;2023-06-26T14:38:52;4.85;;;1.15;;
28343;SDS011;15597;50.914;6.638;2023-06-26T14:41:17;4.13;;;1.05;;
28343;SDS011;15597;50.914;6.638;2023-06-26T14:43:43;3.40;;;1.30;;
28343;SDS011;15597;50.914;6.638;2023-06-26T14:46:10;3.08;;;1.15;;
28343;SDS011;15597;50.914;6.638;2023-06-26T14:48:36;4.25;;;1.10;;
28343;SDS011;15597;50.914;6.638;2023-06-26T14:51:02;4.35;;;1.20;;
28343;SDS011;15597;50.914;6.638;2023-06-26T14:53:28;2.88;;;1.10;;
28343;SDS011;15597;50.914;6.638;2023-06-26T14:55:53;5.65;;;1.20;;
28343;SDS011;15597;50.914;6.638;2023-06-26T14:58:19;4.10;;;1.10;;
28343;SDS011;15597;50.914;6.638;2023-06-26T15:00:44;4.95;;;0.90;;
28343;SDS011;15597;50.914;6.638;2023-06-26T15:03:10;4.00;;;1.20;;
28343;SDS011;15597;50.914;6.638;2023-06-26T15:05:36;5.07;;;1.40;;